sensor_id;sensor_type;location;lat;lon;timestamp;P1;durP1;ratioP1;P2;durP2;ratioP2
24401;SDS011;12539;48.808;11.292;2022-07-30T00:02:15;2.83;;;2.63;;
24401;SDS011;12539;48.808;11.292;2022-07-30T00:04:41;2.78;;;2.58;;
24401;SDS011;12539;48.808;11.292;2022-07-30T00:07:07;5.32;;;4.25;;
24401;SDS011;12539;48.808;11.292;2022-07-30T00:09:33;3.85;;;3.47;;
24401;SDS011;12539;48.808;11.292;2022-07-30T00:11:59;3.17;;;2.70;;
24401;SDS011;12539;48.808;11.292;2022-07-30T00:14:25;4.85;;;4.05;;
24401;SDS011;12539;48.808;11.292;2022-07-30T00:16:51;6.53;;;3.90;;
24401;SDS011;12539;48.808;11.292;2022-07-30T00:19:17;4.57;;;4.18;;
24401;SDS011;12539;48.808;11.292;2022-07-30T00:21:43;7.30;;;6.60;;
24401;SDS011;12539;48.808;11.292;2022-07-30T00:24:10;5.03;;;4.55;;
24401;SDS011;12539;48.808;11.292;2022-07-30T00:26:35;3.92;;;3.55;;
24401;SDS011;12539;48.808;11.292;2022-07-30T00:29:02;3.92;;;3.58;;
24401;SDS011;12539;48.808;11.292;2022-07-30T00:31:28;4.07;;;3.55;;
24401;SDS011;12539;48.808;11.292;2022-07-30T00:33:54;8.07;;;5.82;;
24401;SDS011;12539;48.808;11.292;2022-07-30T00:36:19;4.88;;;3.38;;
24401;SDS011;12539;48.808;11.292;2022-07-30T00:38:45;5.72;;;4.22;;
24401;SDS011;12539;48.808;11.292;2022-07-30T00:41:11;5.18;;;4.22;;
24401;SDS011;12539;48.808;11.292;2022-07-30T00:43:37;6.97;;;5.97;;
24401;SDS011;12539;48.808;11.292;2022-07-30T00:46:02;3.85;;;3.50;;
24401;SDS011;12539;48.808;11.292;2022-07-30T00:48:28;6.65;;;5.80;;
24401;SDS011;12539;48.808;11.292;2022-07-30T00:50:54;4.40;;;4.00;;
24401;SDS011;12539;48.808;11.292;2022-07-30T00:53:19;3.88;;;3.42;;
24401;SDS011;12539;48.808;11.292;2022-07-30T00:55:45;4.40;;;4.00;;
24401;SDS011;12539;48.808;11.292;2022-07-30T00:58:11;4.00;;;3.60;;
24401;SDS011;12539;48.808;11.292;2022-07-30T01:00:36;3.85;;;3.55;;
24401;SDS011;12539;48.808;11.292;2022-07-30T01:03:02;4.35;;;3.90;;
24401;SDS011;12539;48.808;11.292;2022-07-30T01:05:28;4.80;;;3.92;;
24401;SDS011;12539;48.808;11.292;2022-07-30T01:07:55;3.70;;;2.95;;
24401;SDS011;12539;48.808;11.292;2022-07-30T01:10:20;6.93;;;6.25;;
24401;SDS011;12539;48.808;11.292;2022-07-30T01:12:46;4.10;;;3.28;;
24401;SDS011;12539;48.808;11.292;2022-07-30T01:15:12;2.40;;;2.00;;
24401;SDS011;12539;48.808;11.292;2022-07-30T01:17:39;4.97;;;4.47;;
24401;SDS011;12539;48.808;11.292;2022-07-30T01:20:12;4.80;;;4.13;;
24401;SDS011;12539;48.808;11.292;2022-07-30T01:28:18;3.60;;;3.30;;
24401;SDS011;12539;48.808;11.292;2022-07-30T01:30:47;5.55;;;4.20;;
24401;SDS011;12539;48.808;11.292;2022-07-30T01:33:14;4.55;;;4.15;;
24401;SDS011;12539;48.808;11.292;2022-07-30T01:35:43;7.32;;;4.75;;
24401;SDS011;12539;48.808;11.292;2022-07-30T01:38:11;5.63;;;4.38;;
24401;SDS011;12539;48.808;11.292;2022-07-30T01:40:41;7.10;;;6.45;;
24401;SDS011;12539;48.808;11.292;2022-07-30T01:43:08;3.40;;;2.95;;
24401;SDS011;12539;48.808;11.292;2022-07-30T01:45:35;9.38;;;8.27;;
24401;SDS011;12539;48.808;11.292;2022-07-30T01:48:02;10.43;;;9.30;;
24401;SDS011;12539;48.808;11.292;2022-07-30T01:50:29;3.63;;;3.33;;
24401;SDS011;12539;48.808;11.292;2022-07-30T01:52:56;11.93;;;9.13;;
24401;SDS011;12539;48.808;11.292;2022-07-30T01:55:25;7.32;;;6.60;;
24401;SDS011;12539;48.808;11.292;2022-07-30T01:57:56;6.93;;;6.32;;
24401;SDS011;12539;48.808;11.292;2022-07-30T02:00:24;6.13;;;5.53;;
24401;SDS011;12539;48.808;11.292;2022-07-30T02:02:52;9.02;;;8.13;;
24401;SDS011;12539;48.808;11.292;2022-07-30T02:05:18;11.85;;;10.13;;
24401;SDS011;12539;48.808;11.292;2022-07-30T02:10:18;9.63;;;8.73;;
24401;SDS011;12539;48.808;11.292;2022-07-30T02:12:59;9.88;;;8.93;;
24401;SDS011;12539;48.808;11.292;2022-07-30T02:15:41;9.10;;;7.40;;
24401;SDS011;12539;48.808;11.292;2022-07-30T02:18:32;7.50;;;6.72;;
24401;SDS011;12539;48.808;11.292;2022-07-30T02:21:05;8.32;;;7.53;;
24401;SDS011;12539;48.808;11.292;2022-07-30T02:23:40;9.43;;;8.05;;
24401;SDS011;12539;48.808;11.292;2022-07-30T02:26:08;9.75;;;7.57;;
24401;SDS011;12539;48.808;11.292;2022-07-30T02:28:40;8.20;;;7.43;;
24401;SDS011;12539;48.808;11.292;2022-07-30T02:31:08;7.53;;;6.78;;
24401;SDS011;12539;48.808;11.292;2022-07-30T02:33:36;7.65;;;6.93;;
24401;SDS011;12539;48.808;11.292;2022-07-30T02:38:32;8.98;;;7.90;;
24401;SDS011;12539;48.808;11.292;2022-07-30T02:41:00;8.18;;;7.45;;
24401;SDS011;12539;48.808;11.292;2022-07-30T02:43:28;9.52;;;8.63;;
24401;SDS011;12539;48.808;11.292;2022-07-30T02:45:55;8.13;;;7.32;;
24401;SDS011;12539;48.808;11.292;2022-07-30T02:48:23;9.70;;;7.93;;
24401;SDS011;12539;48.808;11.292;2022-07-30T02:50:52;5.63;;;5.15;;
24401;SDS011;12539;48.808;11.292;2022-07-30T02:53:19;8.32;;;6.97;;
24401;SDS011;12539;48.808;11.292;2022-07-30T02:55:46;6.60;;;5.75;;
24401;SDS011;12539;48.808;11.292;2022-07-30T02:58:15;10.60;;;9.07;;
24401;SDS011;12539;48.808;11.292;2022-07-30T03:00:44;7.10;;;6.40;;
24401;SDS011;12539;48.808;11.292;2022-07-30T03:03:12;7.75;;;7.05;;
24401;SDS011;12539;48.808;11.292;2022-07-30T03:05:39;12.02;;;8.80;;
24401;SDS011;12539;48.808;11.292;2022-07-30T03:08:05;8.18;;;7.38;;
24401;SDS011;12539;48.808;11.292;2022-07-30T03:10:32;6.35;;;5.82;;
24401;SDS011;12539;48.808;11.292;2022-07-30T03:13:00;9.02;;;8.10;;
24401;SDS011;12539;48.808;11.292;2022-07-30T03:15:29;6.93;;;6.23;;
24401;SDS011;12539;48.808;11.292;2022-07-30T03:17:58;4.65;;;4.25;;
24401;SDS011;12539;48.808;11.292;2022-07-30T03:20:27;4.35;;;3.92;;
24401;SDS011;12539;48.808;11.292;2022-07-30T03:22:56;11.20;;;10.07;;
24401;SDS011;12539;48.808;11.292;2022-07-30T03:25:26;4.80;;;4.38;;
24401;SDS011;12539;48.808;11.292;2022-07-30T03:27:54;15.95;;;13.13;;
24401;SDS011;12539;48.808;11.292;2022-07-30T03:30:22;10.02;;;9.02;;
24401;SDS011;12539;48.808;11.292;2022-07-30T03:32:50;4.10;;;3.70;;
24401;SDS011;12539;48.808;11.292;2022-07-30T03:35:17;5.53;;;5.00;;
24401;SDS011;12539;48.808;11.292;2022-07-30T03:37:46;8.55;;;7.82;;
24401;SDS011;12539;48.808;11.292;2022-07-30T03:40:14;10.15;;;8.48;;
24401;SDS011;12539;48.808;11.292;2022-07-30T03:42:40;10.02;;;9.02;;
24401;SDS011;12539;48.808;11.292;2022-07-30T03:45:06;2.80;;;2.60;;
24401;SDS011;12539;48.808;11.292;2022-07-30T03:47:35;4.15;;;3.75;;
24401;SDS011;12539;48.808;11.292;2022-07-30T03:50:03;4.65;;;4.22;;
24401;SDS011;12539;48.808;11.292;2022-07-30T03:52:31;7.32;;;6.68;;
24401;SDS011;12539;48.808;11.292;2022-07-30T03:54:58;9.98;;;8.98;;
24401;SDS011;12539;48.808;11.292;2022-07-30T03:57:26;10.93;;;9.82;;
24401;SDS011;12539;48.808;11.292;2022-07-30T03:59:52;9.15;;;8.38;;
24401;SDS011;12539;48.808;11.292;2022-07-30T04:02:18;3.28;;;2.97;;
24401;SDS011;12539;48.808;11.292;2022-07-30T04:04:44;9.73;;;8.82;;
24401;SDS011;12539;48.808;11.292;2022-07-30T04:07:10;10.00;;;9.05;;
24401;SDS011;12539;48.808;11.292;2022-07-30T04:09:36;12.73;;;11.43;;
24401;SDS011;12539;48.808;11.292;2022-07-30T04:12:01;12.00;;;10.88;;
24401;SDS011;12539;48.808;11.292;2022-07-30T04:14:40;4.88;;;4.47;;
24401;SDS011;12539;48.808;11.292;2022-07-30T04:19:53;6.30;;;5.57;;
24401;SDS011;12539;48.808;11.292;2022-07-30T04:22:26;5.63;;;5.15;;
24401;SDS011;12539;48.808;11.292;2022-07-30T04:24:55;4.45;;;4.05;;
24401;SDS011;12539;48.808;11.292;2022-07-30T04:27:23;6.25;;;5.13;;
24401;SDS011;12539;48.808;11.292;2022-07-30T04:29:50;11.50;;;9.43;;
24401;SDS011;12539;48.808;11.292;2022-07-30T04:32:17;4.65;;;4.25;;
24401;SDS011;12539;48.808;11.292;2022-07-30T04:34:47;8.82;;;8.02;;
24401;SDS011;12539;48.808;11.292;2022-07-30T04:37:18;9.25;;;8.40;;
24401;SDS011;12539;48.808;11.292;2022-07-30T04:39:45;5.15;;;4.10;;
24401;SDS011;12539;48.808;11.292;2022-07-30T04:42:15;6.30;;;5.72;;
24401;SDS011;12539;48.808;11.292;2022-07-30T04:44:41;6.15;;;5.57;;
24401;SDS011;12539;48.808;11.292;2022-07-30T04:47:07;8.63;;;7.82;;
24401;SDS011;12539;48.808;11.292;2022-07-30T04:49:32;9.50;;;8.60;;
24401;SDS011;12539;48.808;11.292;2022-07-30T04:51:59;13.32;;;11.90;;
24401;SDS011;12539;48.808;11.292;2022-07-30T04:54:27;10.45;;;9.38;;
24401;SDS011;12539;48.808;11.292;2022-07-30T04:57:06;13.30;;;11.57;;
24401;SDS011;12539;48.808;11.292;2022-07-30T04:59:35;8.40;;;7.70;;
24401;SDS011;12539;48.808;11.292;2022-07-30T05:02:01;9.73;;;8.73;;
24401;SDS011;12539;48.808;11.292;2022-07-30T05:04:30;14.95;;;13.45;;
24401;SDS011;12539;48.808;11.292;2022-07-30T05:06:58;16.98;;;15.20;;
24401;SDS011;12539;48.808;11.292;2022-07-30T05:09:25;11.32;;;10.15;;
24401;SDS011;12539;48.808;11.292;2022-07-30T05:11:52;10.85;;;9.85;;
24401;SDS011;12539;48.808;11.292;2022-07-30T05:14:19;16.67;;;11.65;;
24401;SDS011;12539;48.808;11.292;2022-07-30T05:16:45;20.15;;;15.20;;
24401;SDS011;12539;48.808;11.292;2022-07-30T05:19:11;24.65;;;14.25;;
24401;SDS011;12539;48.808;11.292;2022-07-30T05:21:37;19.23;;;14.07;;
24401;SDS011;12539;48.808;11.292;2022-07-30T05:24:03;19.63;;;12.88;;
24401;SDS011;12539;48.808;11.292;2022-07-30T05:26:29;16.52;;;14.77;;
24401;SDS011;12539;48.808;11.292;2022-07-30T05:28:58;12.10;;;9.35;;
24401;SDS011;12539;48.808;11.292;2022-07-30T05:31:24;15.00;;;13.52;;
24401;SDS011;12539;48.808;11.292;2022-07-30T05:33:50;12.40;;;10.80;;
24401;SDS011;12539;48.808;11.292;2022-07-30T05:36:16;12.30;;;11.10;;
24401;SDS011;12539;48.808;11.292;2022-07-30T05:38:43;8.73;;;7.65;;
24401;SDS011;12539;48.808;11.292;2022-07-30T05:41:09;12.80;;;11.45;;
24401;SDS011;12539;48.808;11.292;2022-07-30T05:43:34;14.10;;;12.80;;
24401;SDS011;12539;48.808;11.292;2022-07-30T05:46:00;9.65;;;8.75;;
24401;SDS011;12539;48.808;11.292;2022-07-30T05:48:26;11.73;;;10.43;;
24401;SDS011;12539;48.808;11.292;2022-07-30T05:50:52;9.35;;;8.20;;
24401;SDS011;12539;48.808;11.292;2022-07-30T05:53:18;8.50;;;7.18;;
24401;SDS011;12539;48.808;11.292;2022-07-30T05:55:44;11.23;;;8.13;;
24401;SDS011;12539;48.808;11.292;2022-07-30T05:58:09;6.30;;;5.70;;
24401;SDS011;12539;48.808;11.292;2022-07-30T06:00:35;10.57;;;9.52;;
24401;SDS011;12539;48.808;11.292;2022-07-30T06:03:01;7.10;;;6.40;;
24401;SDS011;12539;48.808;11.292;2022-07-30T06:05:27;12.40;;;11.10;;
24401;SDS011;12539;48.808;11.292;2022-07-30T06:07:53;11.98;;;10.70;;
24401;SDS011;12539;48.808;11.292;2022-07-30T06:10:19;9.80;;;8.90;;
24401;SDS011;12539;48.808;11.292;2022-07-30T06:12:45;10.30;;;9.35;;
24401;SDS011;12539;48.808;11.292;2022-07-30T06:15:10;6.88;;;6.22;;
24401;SDS011;12539;48.808;11.292;2022-07-30T06:17:39;6.13;;;5.55;;
24401;SDS011;12539;48.808;11.292;2022-07-30T06:20:10;7.18;;;5.85;;
24401;SDS011;12539;48.808;11.292;2022-07-30T06:22:38;6.50;;;5.72;;
24401;SDS011;12539;48.808;11.292;2022-07-30T06:25:04;6.03;;;5.43;;
24401;SDS011;12539;48.808;11.292;2022-07-30T06:27:31;5.95;;;4.95;;
24401;SDS011;12539;48.808;11.292;2022-07-30T06:30:01;5.55;;;5.05;;
24401;SDS011;12539;48.808;11.292;2022-07-30T06:32:31;6.18;;;5.68;;
24401;SDS011;12539;48.808;11.292;2022-07-30T06:34:57;3.75;;;3.45;;
24401;SDS011;12539;48.808;11.292;2022-07-30T06:37:22;5.32;;;4.93;;
24401;SDS011;12539;48.808;11.292;2022-07-30T06:39:48;3.67;;;3.38;;
24401;SDS011;12539;48.808;11.292;2022-07-30T06:42:14;2.80;;;2.60;;
24401;SDS011;12539;48.808;11.292;2022-07-30T06:44:40;2.50;;;2.30;;
24401;SDS011;12539;48.808;11.292;2022-07-30T06:47:05;2.35;;;1.98;;
24401;SDS011;12539;48.808;11.292;2022-07-30T06:49:31;3.72;;;3.28;;
24401;SDS011;12539;48.808;11.292;2022-07-30T06:51:58;2.20;;;2.05;;
24401;SDS011;12539;48.808;11.292;2022-07-30T06:54:24;2.55;;;2.35;;
24401;SDS011;12539;48.808;11.292;2022-07-30T06:56:50;3.35;;;3.05;;
24401;SDS011;12539;48.808;11.292;2022-07-30T06:59:15;3.22;;;2.55;;
24401;SDS011;12539;48.808;11.292;2022-07-30T07:01:41;2.60;;;2.38;;
24401;SDS011;12539;48.808;11.292;2022-07-30T07:04:07;3.92;;;3.00;;
24401;SDS011;12539;48.808;11.292;2022-07-30T07:06:33;3.30;;;3.00;;
24401;SDS011;12539;48.808;11.292;2022-07-30T07:08:59;1.67;;;1.52;;
24401;SDS011;12539;48.808;11.292;2022-07-30T07:11:25;6.80;;;2.30;;
24401;SDS011;12539;48.808;11.292;2022-07-30T07:13:50;2.25;;;1.98;;
24401;SDS011;12539;48.808;11.292;2022-07-30T07:16:16;1.77;;;1.67;;
24401;SDS011;12539;48.808;11.292;2022-07-30T07:18:46;4.30;;;3.20;;
24401;SDS011;12539;48.808;11.292;2022-07-30T07:21:13;2.47;;;2.28;;
24401;SDS011;12539;48.808;11.292;2022-07-30T07:23:39;2.00;;;1.90;;
24401;SDS011;12539;48.808;11.292;2022-07-30T07:26:05;1.45;;;1.35;;
24401;SDS011;12539;48.808;11.292;2022-07-30T07:28:30;2.47;;;1.92;;
24401;SDS011;12539;48.808;11.292;2022-07-30T07:30:56;1.60;;;1.50;;
24401;SDS011;12539;48.808;11.292;2022-07-30T07:33:22;1.80;;;1.60;;
24401;SDS011;12539;48.808;11.292;2022-07-30T07:35:47;3.15;;;2.47;;
24401;SDS011;12539;48.808;11.292;2022-07-30T07:38:13;1.75;;;1.60;;
24401;SDS011;12539;48.808;11.292;2022-07-30T07:40:39;1.70;;;1.60;;
24401;SDS011;12539;48.808;11.292;2022-07-30T07:43:05;1.75;;;1.65;;
24401;SDS011;12539;48.808;11.292;2022-07-30T07:45:30;2.55;;;1.90;;
24401;SDS011;12539;48.808;11.292;2022-07-30T07:47:56;3.63;;;1.95;;
24401;SDS011;12539;48.808;11.292;2022-07-30T07:50:22;4.63;;;3.15;;
24401;SDS011;12539;48.808;11.292;2022-07-30T07:52:48;3.45;;;2.72;;
24401;SDS011;12539;48.808;11.292;2022-07-30T07:55:13;3.25;;;2.95;;
24401;SDS011;12539;48.808;11.292;2022-07-30T08:00:06;4.05;;;3.65;;
24401;SDS011;12539;48.808;11.292;2022-07-30T08:02:33;4.13;;;3.72;;
24401;SDS011;12539;48.808;11.292;2022-07-30T08:04:59;4.63;;;3.33;;
24401;SDS011;12539;48.808;11.292;2022-07-30T08:07:25;6.07;;;3.30;;
24401;SDS011;12539;48.808;11.292;2022-07-30T08:09:51;5.15;;;3.58;;
24401;SDS011;12539;48.808;11.292;2022-07-30T08:12:17;3.58;;;2.60;;
24401;SDS011;12539;48.808;11.292;2022-07-30T08:14:42;4.65;;;4.25;;
24401;SDS011;12539;48.808;11.292;2022-07-30T08:17:08;3.72;;;3.35;;
24401;SDS011;12539;48.808;11.292;2022-07-30T08:19:34;3.13;;;2.88;;
24401;SDS011;12539;48.808;11.292;2022-07-30T08:22:02;2.88;;;2.35;;
24401;SDS011;12539;48.808;11.292;2022-07-30T08:24:27;3.75;;;3.13;;
24401;SDS011;12539;48.808;11.292;2022-07-30T08:26:53;2.47;;;2.28;;
24401;SDS011;12539;48.808;11.292;2022-07-30T08:29:19;3.92;;;3.63;;
24401;SDS011;12539;48.808;11.292;2022-07-30T08:31:44;2.97;;;2.70;;
24401;SDS011;12539;48.808;11.292;2022-07-30T08:34:10;2.33;;;2.13;;
24401;SDS011;12539;48.808;11.292;2022-07-30T08:36:37;4.15;;;2.95;;
24401;SDS011;12539;48.808;11.292;2022-07-30T08:39:03;5.78;;;3.88;;
24401;SDS011;12539;48.808;11.292;2022-07-30T08:41:29;4.05;;;3.25;;
24401;SDS011;12539;48.808;11.292;2022-07-30T08:43:55;4.07;;;2.92;;
24401;SDS011;12539;48.808;11.292;2022-07-30T08:46:24;4.03;;;3.15;;
24401;SDS011;12539;48.808;11.292;2022-07-30T08:48:53;4.47;;;2.95;;
24401;SDS011;12539;48.808;11.292;2022-07-30T08:51:19;3.17;;;2.85;;
24401;SDS011;12539;48.808;11.292;2022-07-30T08:53:46;2.97;;;2.67;;
24401;SDS011;12539;48.808;11.292;2022-07-30T08:56:12;5.25;;;3.45;;
24401;SDS011;12539;48.808;11.292;2022-07-30T08:58:38;4.78;;;3.25;;
24401;SDS011;12539;48.808;11.292;2022-07-30T09:01:05;4.57;;;3.72;;
24401;SDS011;12539;48.808;11.292;2022-07-30T09:03:31;4.22;;;3.40;;
24401;SDS011;12539;48.808;11.292;2022-07-30T09:05:57;3.60;;;3.20;;
24401;SDS011;12539;48.808;11.292;2022-07-30T09:08:24;3.92;;;3.55;;
24401;SDS011;12539;48.808;11.292;2022-07-30T09:10:50;6.35;;;2.70;;
24401;SDS011;12539;48.808;11.292;2022-07-30T09:13:23;4.00;;;3.30;;
24401;SDS011;12539;48.808;11.292;2022-07-30T09:15:49;3.97;;;3.25;;
24401;SDS011;12539;48.808;11.292;2022-07-30T09:18:16;5.35;;;2.90;;
24401;SDS011;12539;48.808;11.292;2022-07-30T09:20:53;5.82;;;2.92;;
24401;SDS011;12539;48.808;11.292;2022-07-30T09:23:19;2.75;;;2.42;;
24401;SDS011;12539;48.808;11.292;2022-07-30T09:25:45;3.05;;;2.75;;
24401;SDS011;12539;48.808;11.292;2022-07-30T09:28:12;4.97;;;3.38;;
24401;SDS011;12539;48.808;11.292;2022-07-30T09:33:30;4.38;;;2.78;;
24401;SDS011;12539;48.808;11.292;2022-07-30T09:35:58;2.90;;;2.40;;
24401;SDS011;12539;48.808;11.292;2022-07-30T09:38:24;2.05;;;1.80;;
24401;SDS011;12539;48.808;11.292;2022-07-30T09:40:50;3.58;;;1.95;;
24401;SDS011;12539;48.808;11.292;2022-07-30T09:43:17;3.70;;;2.55;;
24401;SDS011;12539;48.808;11.292;2022-07-30T09:45:49;2.58;;;1.85;;
24401;SDS011;12539;48.808;11.292;2022-07-30T09:48:24;2.50;;;1.90;;
24401;SDS011;12539;48.808;11.292;2022-07-30T09:50:52;2.03;;;1.83;;
24401;SDS011;12539;48.808;11.292;2022-07-30T09:53:18;3.67;;;2.08;;
24401;SDS011;12539;48.808;11.292;2022-07-30T09:55:46;2.03;;;1.83;;
24401;SDS011;12539;48.808;11.292;2022-07-30T09:58:13;1.90;;;1.75;;
24401;SDS011;12539;48.808;11.292;2022-07-30T10:00:39;4.97;;;1.65;;
24401;SDS011;12539;48.808;11.292;2022-07-30T10:03:16;2.05;;;1.83;;
24401;SDS011;12539;48.808;11.292;2022-07-30T10:06:03;3.60;;;1.90;;
24401;SDS011;12539;48.808;11.292;2022-07-30T10:11:05;3.03;;;1.88;;
24401;SDS011;12539;48.808;11.292;2022-07-30T10:13:34;2.08;;;1.63;;
24401;SDS011;12539;48.808;11.292;2022-07-30T10:16:01;2.83;;;1.60;;
24401;SDS011;12539;48.808;11.292;2022-07-30T10:18:27;3.05;;;1.60;;
24401;SDS011;12539;48.808;11.292;2022-07-30T10:20:53;3.33;;;1.27;;
24401;SDS011;12539;48.808;11.292;2022-07-30T10:23:19;2.50;;;1.30;;
24401;SDS011;12539;48.808;11.292;2022-07-30T10:25:45;3.22;;;1.50;;
24401;SDS011;12539;48.808;11.292;2022-07-30T10:28:12;2.42;;;1.38;;
24401;SDS011;12539;48.808;11.292;2022-07-30T10:30:39;3.33;;;1.30;;
24401;SDS011;12539;48.808;11.292;2022-07-30T10:33:05;1.70;;;1.38;;
24401;SDS011;12539;48.808;11.292;2022-07-30T10:35:32;2.00;;;1.10;;
24401;SDS011;12539;48.808;11.292;2022-07-30T10:37:58;2.47;;;1.40;;
24401;SDS011;12539;48.808;11.292;2022-07-30T10:40:39;2.53;;;1.52;;
24401;SDS011;12539;48.808;11.292;2022-07-30T10:48:25;1.25;;;1.10;;
24401;SDS011;12539;48.808;11.292;2022-07-30T10:50:55;3.05;;;1.40;;
24401;SDS011;12539;48.808;11.292;2022-07-30T10:53:31;1.80;;;1.30;;
24401;SDS011;12539;48.808;11.292;2022-07-30T10:56:34;1.17;;;1.03;;
24401;SDS011;12539;48.808;11.292;2022-07-30T10:59:11;2.03;;;1.17;;
24401;SDS011;12539;48.808;11.292;2022-07-30T11:02:10;1.63;;;1.20;;
24401;SDS011;12539;48.808;11.292;2022-07-30T11:04:32;1.90;;;1.33;;
24401;SDS011;12539;48.808;11.292;2022-07-30T11:09:42;3.90;;;1.23;;
24401;SDS011;12539;48.808;11.292;2022-07-30T11:12:08;2.60;;;1.10;;
24401;SDS011;12539;48.808;11.292;2022-07-30T11:17:16;1.65;;;1.10;;
24401;SDS011;12539;48.808;11.292;2022-07-30T11:22:30;2.00;;;1.10;;
24401;SDS011;12539;48.808;11.292;2022-07-30T11:25:02;1.25;;;1.10;;
24401;SDS011;12539;48.808;11.292;2022-07-30T11:27:45;1.70;;;1.10;;
24401;SDS011;12539;48.808;11.292;2022-07-30T11:32:41;1.00;;;0.90;;
24401;SDS011;12539;48.808;11.292;2022-07-30T11:40:33;3.05;;;1.30;;
24401;SDS011;12539;48.808;11.292;2022-07-30T11:45:50;1.50;;;1.23;;
24401;SDS011;12539;48.808;11.292;2022-07-30T11:48:18;3.08;;;1.40;;
24401;SDS011;12539;48.808;11.292;2022-07-30T11:50:45;3.08;;;1.33;;
24401;SDS011;12539;48.808;11.292;2022-07-30T11:53:13;1.27;;;0.98;;
24401;SDS011;12539;48.808;11.292;2022-07-30T11:55:42;3.38;;;1.00;;
24401;SDS011;12539;48.808;11.292;2022-07-30T12:01:06;1.77;;;1.10;;
24401;SDS011;12539;48.808;11.292;2022-07-30T12:03:39;1.10;;;1.00;;
24401;SDS011;12539;48.808;11.292;2022-07-30T12:06:07;2.08;;;1.15;;
24401;SDS011;12539;48.808;11.292;2022-07-30T12:08:58;3.55;;;1.20;;
24401;SDS011;12539;48.808;11.292;2022-07-30T12:11:24;6.07;;;2.22;;
24401;SDS011;12539;48.808;11.292;2022-07-30T12:13:57;2.38;;;1.08;;
24401;SDS011;12539;48.808;11.292;2022-07-30T12:16:26;3.97;;;1.40;;
24401;SDS011;12539;48.808;11.292;2022-07-30T12:18:54;3.67;;;1.13;;
24401;SDS011;12539;48.808;11.292;2022-07-30T12:21:19;2.90;;;1.10;;
24401;SDS011;12539;48.808;11.292;2022-07-30T12:24:02;1.02;;;0.80;;
24401;SDS011;12539;48.808;11.292;2022-07-30T12:26:31;2.13;;;1.10;;
24401;SDS011;12539;48.808;11.292;2022-07-30T12:28:59;1.63;;;1.05;;
24401;SDS011;12539;48.808;11.292;2022-07-30T12:31:27;0.88;;;0.73;;
24401;SDS011;12539;48.808;11.292;2022-07-30T12:33:53;3.25;;;1.48;;
24401;SDS011;12539;48.808;11.292;2022-07-30T12:36:22;3.47;;;1.05;;
24401;SDS011;12539;48.808;11.292;2022-07-30T12:38:53;1.67;;;1.27;;
24401;SDS011;12539;48.808;11.292;2022-07-30T12:41:21;1.42;;;0.90;;
24401;SDS011;12539;48.808;11.292;2022-07-30T12:43:49;2.25;;;0.80;;
24401;SDS011;12539;48.808;11.292;2022-07-30T12:46:19;3.50;;;1.30;;
24401;SDS011;12539;48.808;11.292;2022-07-30T12:49:00;1.75;;;0.88;;
24401;SDS011;12539;48.808;11.292;2022-07-30T12:51:28;2.15;;;1.10;;
24401;SDS011;12539;48.808;11.292;2022-07-30T12:56:27;2.50;;;1.20;;
24401;SDS011;12539;48.808;11.292;2022-07-30T12:58:55;1.33;;;0.90;;
24401;SDS011;12539;48.808;11.292;2022-07-30T13:01:37;2.70;;;1.10;;
24401;SDS011;12539;48.808;11.292;2022-07-30T13:04:04;1.83;;;1.35;;
24401;SDS011;12539;48.808;11.292;2022-07-30T13:06:30;2.80;;;1.55;;
24401;SDS011;12539;48.808;11.292;2022-07-30T13:08:56;2.03;;;0.80;;
24401;SDS011;12539;48.808;11.292;2022-07-30T13:11:36;2.88;;;1.02;;
24401;SDS011;12539;48.808;11.292;2022-07-30T13:14:03;1.67;;;0.90;;
24401;SDS011;12539;48.808;11.292;2022-07-30T13:16:33;1.17;;;0.73;;
24401;SDS011;12539;48.808;11.292;2022-07-30T13:18:59;3.80;;;0.85;;
24401;SDS011;12539;48.808;11.292;2022-07-30T13:21:28;4.60;;;1.58;;
24401;SDS011;12539;48.808;11.292;2022-07-30T13:23:53;2.05;;;0.98;;
24401;SDS011;12539;48.808;11.292;2022-07-30T13:26:19;1.27;;;1.10;;
24401;SDS011;12539;48.808;11.292;2022-07-30T13:28:45;1.20;;;1.10;;
24401;SDS011;12539;48.808;11.292;2022-07-30T13:31:10;4.07;;;1.10;;
24401;SDS011;12539;48.808;11.292;2022-07-30T13:33:37;2.28;;;1.13;;
24401;SDS011;12539;48.808;11.292;2022-07-30T13:36:05;1.20;;;1.05;;
24401;SDS011;12539;48.808;11.292;2022-07-30T13:38:31;1.73;;;1.10;;
24401;SDS011;12539;48.808;11.292;2022-07-30T13:40:58;1.30;;;0.80;;
24401;SDS011;12539;48.808;11.292;2022-07-30T13:43:24;1.98;;;1.00;;
24401;SDS011;12539;48.808;11.292;2022-07-30T13:45:50;2.67;;;1.38;;
24401;SDS011;12539;48.808;11.292;2022-07-30T13:50:46;2.58;;;1.15;;
24401;SDS011;12539;48.808;11.292;2022-07-30T13:53:12;5.22;;;1.67;;
24401;SDS011;12539;48.808;11.292;2022-07-30T13:55:38;1.98;;;1.10;;
24401;SDS011;12539;48.808;11.292;2022-07-30T13:58:05;1.95;;;1.50;;
24401;SDS011;12539;48.808;11.292;2022-07-30T14:00:31;3.42;;;1.38;;
24401;SDS011;12539;48.808;11.292;2022-07-30T14:03:00;1.88;;;1.33;;
24401;SDS011;12539;48.808;11.292;2022-07-30T14:05:28;2.33;;;1.02;;
24401;SDS011;12539;48.808;11.292;2022-07-30T14:07:53;3.17;;;1.20;;
24401;SDS011;12539;48.808;11.292;2022-07-30T14:10:19;5.15;;;1.35;;
24401;SDS011;12539;48.808;11.292;2022-07-30T14:12:47;2.67;;;1.10;;
24401;SDS011;12539;48.808;11.292;2022-07-30T14:15:20;1.95;;;1.20;;
24401;SDS011;12539;48.808;11.292;2022-07-30T14:17:47;2.60;;;1.20;;
24401;SDS011;12539;48.808;11.292;2022-07-30T14:20:14;2.95;;;1.10;;
24401;SDS011;12539;48.808;11.292;2022-07-30T14:22:40;2.70;;;1.25;;
24401;SDS011;12539;48.808;11.292;2022-07-30T14:25:06;2.13;;;1.05;;
24401;SDS011;12539;48.808;11.292;2022-07-30T14:27:32;2.63;;;1.25;;
24401;SDS011;12539;48.808;11.292;2022-07-30T14:29:58;3.17;;;1.30;;
24401;SDS011;12539;48.808;11.292;2022-07-30T14:32:24;2.63;;;1.30;;
24401;SDS011;12539;48.808;11.292;2022-07-30T14:34:51;1.70;;;1.30;;
24401;SDS011;12539;48.808;11.292;2022-07-30T14:37:17;2.60;;;1.48;;
24401;SDS011;12539;48.808;11.292;2022-07-30T14:39:42;2.55;;;1.10;;
24401;SDS011;12539;48.808;11.292;2022-07-30T14:42:08;3.42;;;1.05;;
24401;SDS011;12539;48.808;11.292;2022-07-30T14:44:34;1.13;;;1.00;;
24401;SDS011;12539;48.808;11.292;2022-07-30T14:47:00;3.72;;;1.58;;
24401;SDS011;12539;48.808;11.292;2022-07-30T14:49:26;5.07;;;1.23;;
24401;SDS011;12539;48.808;11.292;2022-07-30T14:51:52;3.42;;;1.90;;
24401;SDS011;12539;48.808;11.292;2022-07-30T14:54:18;1.30;;;1.20;;
24401;SDS011;12539;48.808;11.292;2022-07-30T14:56:44;3.08;;;1.42;;
24401;SDS011;12539;48.808;11.292;2022-07-30T14:59:09;2.22;;;1.33;;
24401;SDS011;12539;48.808;11.292;2022-07-30T15:01:35;1.77;;;1.27;;
24401;SDS011;12539;48.808;11.292;2022-07-30T15:04:01;2.05;;;1.23;;
24401;SDS011;12539;48.808;11.292;2022-07-30T15:06:27;1.80;;;1.40;;
24401;SDS011;12539;48.808;11.292;2022-07-30T15:08:53;3.00;;;1.02;;
24401;SDS011;12539;48.808;11.292;2022-07-30T15:11:18;2.40;;;1.30;;
24401;SDS011;12539;48.808;11.292;2022-07-30T15:13:44;3.15;;;1.08;;
24401;SDS011;12539;48.808;11.292;2022-07-30T15:16:10;2.72;;;1.38;;
24401;SDS011;12539;48.808;11.292;2022-07-30T15:18:36;3.40;;;1.38;;
24401;SDS011;12539;48.808;11.292;2022-07-30T15:21:02;4.18;;;1.55;;
24401;SDS011;12539;48.808;11.292;2022-07-30T15:23:27;1.88;;;1.20;;
24401;SDS011;12539;48.808;11.292;2022-07-30T15:25:53;1.20;;;1.10;;
24401;SDS011;12539;48.808;11.292;2022-07-30T15:28:19;2.47;;;1.00;;
24401;SDS011;12539;48.808;11.292;2022-07-30T15:30:46;2.45;;;1.05;;